Indian Head, PA (15446)

8:20 AM EST on February 08, 2016 (GMT -0500)
Top of Indian Head | | Change Station
CLOSE
Current Station
Personal Weather Station
Location: Champion, PA
Elevation: 1857 ft
Nearby Weather Stations
Active Advisory: Winter Weather Advisory

Elev 1857 ft 40.05 °N, 79.37 °W | Updated 1 minute ago

Partly Cloudy
Partly Cloudy
28.6 °F
Feels Like 25 °F
N
3.7
Wind Variable Wind from East

Today
High -- | Low -- °F
--% Chance of Precip.
Yesterday
High -- | Low -- °F
Precip. -- in
Pressure 29.69 in
Visibility 10.0 miles
Clouds Scattered Clouds 5000 ft
Windchill 25 °F
Dew Point 22 °F
Humidity 77%
Rainfall 0.00 in
Snow Depth Not available.
7:19 AM 5:44 PM
Waning Crescent, 0% visible
METAR KLBE 081245Z 00000KT 10SM SCT050 M02/M03 A2969
Pressure 29.69 in
Visibility 10.0 miles
Clouds Scattered Clouds 5000 ft
Windchill 25 °F
Dew Point 22 °F
Humidity 77%
Rainfall 0.00 in
Snow Depth Not available.
7:19 AM 5:44 PM
Waning Crescent, 0% visible
METAR KLBE 081245Z 00000KT 10SM SCT050 M02/M03 A2969

10-Day Weather Forecast

Almanac

Astronomy

Feb. 08, 2016 Rise Set
Actual Time
Civil Twilight
Nautical Twilight
Astronomical Twilight
Moon
Length of Visible Light
Length of Day
Tomorrow will be .
, % of the Moon is Illuminated

Today's Extremes

State Highs State Lows

Community

WunderPhotos

Upload Photos

1,891,434 photos uploaded!

WunderBlog® & News

Nearby

Air Quality

  Air Quality AQ Index Pollutant
Not available.

Snow Depth

Station Depth Elevation

Earthquake Activity

City Distance Mag. Time & Date
Minimum magnitude displayed is 2.5.

Coastal Water Temperatures

Place Temperature

Stations

Nearby Weather Stations

Station Location Temp. Windchill Dew Point Humidity Wind Precip. Elev Updated Type
                   

Watches & Warnings

Winter Weather Advisory
Issued: 4:13 AM EST Feb. 8, 2016 – National Weather Service

... Winter Weather Advisory in effect from 7 PM this evening to
7 PM EST Wednesday...

The National Weather Service in Pittsburgh has issued a Winter
Weather Advisory for snow... which is in effect from 7 PM this
evening to 7 PM EST Wednesday.

* Snow accumulation... 2 to 4 inches through early Tuesday... with
an additional 2 to 4 inches then expected through Wednesday
morning.

* Snow beginning... Monday afternoon.

* Period of most intense snow... Monday night through Tuesday
morning.

* Snow ending... snow will continue into Wednesday before gradually
tapering down thereafter.

* Impacts... hazardous travel conditions are expected due to snow.

Precautionary/preparedness actions...

A Winter Weather Advisory for snow means that periods of snow
will cause primarily travel difficulties. Be prepared for snow
covered roads and limited visibilities... and use caution while
driving.